sensor_id;sensor_type;location;lat;lon;timestamp;P1;durP1;ratioP1;P2;durP2;ratioP2
9986;SDS011;5033;46.310;11.214;2022-11-11T00:00:38;3.00;;;2.80;;
9986;SDS011;5033;46.310;11.214;2022-11-11T00:03:05;3.20;;;3.00;;
9986;SDS011;5033;46.310;11.214;2022-11-11T00:05:32;3.58;;;3.38;;
9986;SDS011;5033;46.310;11.214;2022-11-11T00:08:00;2.83;;;2.70;;
9986;SDS011;5033;46.310;11.214;2022-11-11T00:10:28;2.60;;;2.45;;
9986;SDS011;5033;46.310;11.214;2022-11-11T00:12:59;2.60;;;2.50;;
9986;SDS011;5033;46.310;11.214;2022-11-11T00:15:26;2.92;;;2.75;;
9986;SDS011;5033;46.310;11.214;2022-11-11T00:17:54;2.90;;;2.70;;
9986;SDS011;5033;46.310;11.214;2022-11-11T00:20:39;2.58;;;2.38;;
9986;SDS011;5033;46.310;11.214;2022-11-11T00:23:24;2.90;;;2.70;;
9986;SDS011;5033;46.310;11.214;2022-11-11T00:26:12;2.80;;;2.60;;
9986;SDS011;5033;46.310;11.214;2022-11-11T00:28:40;2.47;;;2.38;;
9986;SDS011;5033;46.310;11.214;2022-11-11T00:31:08;2.80;;;2.60;;
9986;SDS011;5033;46.310;11.214;2022-11-11T00:33:36;2.70;;;2.60;;
9986;SDS011;5033;46.310;11.214;2022-11-11T00:36:04;2.60;;;2.45;;
9986;SDS011;5033;46.310;11.214;2022-11-11T00:38:30;2.67;;;2.47;;
9986;SDS011;5033;46.310;11.214;2022-11-11T00:41:16;2.95;;;2.38;;
9986;SDS011;5033;46.310;11.214;2022-11-11T00:43:44;3.00;;;2.80;;
9986;SDS011;5033;46.310;11.214;2022-11-11T00:46:12;2.85;;;2.70;;
9986;SDS011;5033;46.310;11.214;2022-11-11T00:48:58;2.28;;;2.17;;
9986;SDS011;5033;46.310;11.214;2022-11-11T00:51:42;2.50;;;2.40;;
9986;SDS011;5033;46.310;11.214;2022-11-11T00:54:09;2.80;;;2.60;;
9986;SDS011;5033;46.310;11.214;2022-11-11T00:56:38;2.78;;;2.67;;
9986;SDS011;5033;46.310;11.214;2022-11-11T00:59:06;2.75;;;2.55;;
9986;SDS011;5033;46.310;11.214;2022-11-11T01:01:34;2.50;;;2.40;;
9986;SDS011;5033;46.310;11.214;2022-11-11T01:04:02;2.63;;;2.53;;
9986;SDS011;5033;46.310;11.214;2022-11-11T01:06:30;3.25;;;3.05;;
9986;SDS011;5033;46.310;11.214;2022-11-11T01:08:57;3.10;;;2.90;;
9986;SDS011;5033;46.310;11.214;2022-11-11T01:11:29;3.10;;;2.90;;
9986;SDS011;5033;46.310;11.214;2022-11-11T01:13:58;2.83;;;2.63;;
9986;SDS011;5033;46.310;11.214;2022-11-11T01:16:25;2.60;;;2.50;;
9986;SDS011;5033;46.310;11.214;2022-11-11T01:18:53;2.90;;;2.70;;
9986;SDS011;5033;46.310;11.214;2022-11-11T01:21:21;2.83;;;2.63;;
9986;SDS011;5033;46.310;11.214;2022-11-11T01:23:50;2.70;;;2.60;;
9986;SDS011;5033;46.310;11.214;2022-11-11T01:26:18;2.92;;;2.72;;
9986;SDS011;5033;46.310;11.214;2022-11-11T01:28:47;3.08;;;2.88;;
9986;SDS011;5033;46.310;11.214;2022-11-11T01:31:16;2.75;;;2.55;;
9986;SDS011;5033;46.310;11.214;2022-11-11T01:33:45;2.55;;;2.40;;
9986;SDS011;5033;46.310;11.214;2022-11-11T01:36:13;2.75;;;2.58;;
9986;SDS011;5033;46.310;11.214;2022-11-11T01:38:42;2.92;;;2.72;;
9986;SDS011;5033;46.310;11.214;2022-11-11T01:41:10;2.75;;;2.55;;
9986;SDS011;5033;46.310;11.214;2022-11-11T01:43:56;2.80;;;2.60;;
9986;SDS011;5033;46.310;11.214;2022-11-11T01:46:26;2.65;;;2.55;;
9986;SDS011;5033;46.310;11.214;2022-11-11T01:48:58;2.72;;;2.63;;
9986;SDS011;5033;46.310;11.214;2022-11-11T01:51:56;2.85;;;2.67;;
9986;SDS011;5033;46.310;11.214;2022-11-11T01:54:29;3.00;;;2.88;;
9986;SDS011;5033;46.310;11.214;2022-11-11T01:57:01;2.50;;;2.40;;
9986;SDS011;5033;46.310;11.214;2022-11-11T01:59:32;2.78;;;2.65;;
9986;SDS011;5033;46.310;11.214;2022-11-11T02:02:04;2.53;;;2.40;;
9986;SDS011;5033;46.310;11.214;2022-11-11T02:04:37;2.75;;;2.65;;
9986;SDS011;5033;46.310;11.214;2022-11-11T02:07:22;2.60;;;2.40;;
9986;SDS011;5033;46.310;11.214;2022-11-11T02:09:51;2.50;;;2.40;;
9986;SDS011;5033;46.310;11.214;2022-11-11T02:12:20;2.63;;;2.42;;
9986;SDS011;5033;46.310;11.214;2022-11-11T02:15:05;2.67;;;2.58;;
9986;SDS011;5033;46.310;11.214;2022-11-11T02:17:34;2.85;;;2.65;;
9986;SDS011;5033;46.310;11.214;2022-11-11T02:20:02;2.53;;;2.42;;
9986;SDS011;5033;46.310;11.214;2022-11-11T02:22:35;2.70;;;2.50;;
9986;SDS011;5033;46.310;11.214;2022-11-11T02:25:10;2.97;;;2.78;;
9986;SDS011;5033;46.310;11.214;2022-11-11T02:27:42;2.30;;;2.20;;
9986;SDS011;5033;46.310;11.214;2022-11-11T02:30:14;2.80;;;2.60;;
9986;SDS011;5033;46.310;11.214;2022-11-11T02:32:42;3.03;;;2.70;;
9986;SDS011;5033;46.310;11.214;2022-11-11T02:35:12;2.35;;;2.15;;
9986;SDS011;5033;46.310;11.214;2022-11-11T02:37:41;2.92;;;2.72;;
9986;SDS011;5033;46.310;11.214;2022-11-11T02:40:13;2.53;;;2.42;;
9986;SDS011;5033;46.310;11.214;2022-11-11T02:42:42;2.60;;;2.50;;
9986;SDS011;5033;46.310;11.214;2022-11-11T02:45:08;3.00;;;2.80;;
9986;SDS011;5033;46.310;11.214;2022-11-11T02:47:36;2.60;;;2.50;;
9986;SDS011;5033;46.310;11.214;2022-11-11T02:50:03;2.58;;;2.38;;
9986;SDS011;5033;46.310;11.214;2022-11-11T02:52:31;2.45;;;2.35;;
9986;SDS011;5033;46.310;11.214;2022-11-11T02:54:58;2.30;;;2.05;;
9986;SDS011;5033;46.310;11.214;2022-11-11T02:57:27;2.75;;;2.58;;
9986;SDS011;5033;46.310;11.214;2022-11-11T02:59:54;2.60;;;2.50;;
9986;SDS011;5033;46.310;11.214;2022-11-11T03:02:23;2.50;;;2.40;;
9986;SDS011;5033;46.310;11.214;2022-11-11T03:04:51;2.67;;;2.58;;
9986;SDS011;5033;46.310;11.214;2022-11-11T03:07:19;2.47;;;2.38;;
9986;SDS011;5033;46.310;11.214;2022-11-11T03:09:46;2.45;;;2.35;;
9986;SDS011;5033;46.310;11.214;2022-11-11T03:12:14;2.75;;;2.55;;
9986;SDS011;5033;46.310;11.214;2022-11-11T03:14:42;2.45;;;2.35;;
9986;SDS011;5033;46.310;11.214;2022-11-11T03:17:09;2.05;;;1.95;;
9986;SDS011;5033;46.310;11.214;2022-11-11T03:19:54;2.38;;;2.28;;
9986;SDS011;5033;46.310;11.214;2022-11-11T03:22:41;2.60;;;2.50;;
9986;SDS011;5033;46.310;11.214;2022-11-11T03:25:08;2.42;;;2.33;;
9986;SDS011;5033;46.310;11.214;2022-11-11T03:27:52;2.17;;;2.08;;
9986;SDS011;5033;46.310;11.214;2022-11-11T03:30:21;2.45;;;2.35;;
9986;SDS011;5033;46.310;11.214;2022-11-11T03:32:48;2.30;;;2.20;;
9986;SDS011;5033;46.310;11.214;2022-11-11T03:35:15;2.80;;;2.60;;
9986;SDS011;5033;46.310;11.214;2022-11-11T03:37:42;2.58;;;2.47;;
9986;SDS011;5033;46.310;11.214;2022-11-11T03:40:27;2.65;;;2.55;;
9986;SDS011;5033;46.310;11.214;2022-11-11T03:42:54;2.92;;;2.83;;
9986;SDS011;5033;46.310;11.214;2022-11-11T03:45:22;2.83;;;2.55;;
9986;SDS011;5033;46.310;11.214;2022-11-11T03:47:49;2.80;;;2.60;;
9986;SDS011;5033;46.310;11.214;2022-11-11T03:50:19;2.60;;;2.50;;
9986;SDS011;5033;46.310;11.214;2022-11-11T03:52:46;2.72;;;2.53;;
9986;SDS011;5033;46.310;11.214;2022-11-11T03:55:13;2.08;;;1.98;;
9986;SDS011;5033;46.310;11.214;2022-11-11T03:57:40;2.42;;;2.33;;
9986;SDS011;5033;46.310;11.214;2022-11-11T04:00:09;2.25;;;2.15;;
9986;SDS011;5033;46.310;11.214;2022-11-11T04:02:39;2.35;;;2.25;;
9986;SDS011;5033;46.310;11.214;2022-11-11T04:05:23;2.58;;;2.38;;
9986;SDS011;5033;46.310;11.214;2022-11-11T04:08:09;2.85;;;2.65;;
9986;SDS011;5033;46.310;11.214;2022-11-11T04:11:07;2.95;;;2.75;;
9986;SDS011;5033;46.310;11.214;2022-11-11T04:13:37;2.95;;;2.75;;
9986;SDS011;5033;46.310;11.214;2022-11-11T04:16:22;3.05;;;2.85;;
9986;SDS011;5033;46.310;11.214;2022-11-11T04:18:52;3.17;;;2.97;;
9986;SDS011;5033;46.310;11.214;2022-11-11T04:21:36;2.80;;;2.60;;
9986;SDS011;5033;46.310;11.214;2022-11-11T04:24:09;2.95;;;2.75;;
9986;SDS011;5033;46.310;11.214;2022-11-11T04:26:55;2.45;;;2.35;;
9986;SDS011;5033;46.310;11.214;2022-11-11T04:29:24;3.38;;;3.17;;
9986;SDS011;5033;46.310;11.214;2022-11-11T04:31:53;3.08;;;2.88;;
9986;SDS011;5033;46.310;11.214;2022-11-11T04:34:39;2.63;;;2.53;;
9986;SDS011;5033;46.310;11.214;2022-11-11T04:37:07;2.83;;;2.65;;
9986;SDS011;5033;46.310;11.214;2022-11-11T04:39:34;2.60;;;2.50;;
9986;SDS011;5033;46.310;11.214;2022-11-11T04:42:18;2.60;;;2.40;;
9986;SDS011;5033;46.310;11.214;2022-11-11T04:44:45;2.83;;;2.72;;
9986;SDS011;5033;46.310;11.214;2022-11-11T04:47:30;2.70;;;2.50;;
9986;SDS011;5033;46.310;11.214;2022-11-11T04:49:58;2.70;;;2.50;;
9986;SDS011;5033;46.310;11.214;2022-11-11T04:52:26;2.53;;;2.42;;
9986;SDS011;5033;46.310;11.214;2022-11-11T04:54:54;2.80;;;2.63;;
9986;SDS011;5033;46.310;11.214;2022-11-11T04:57:40;2.33;;;2.22;;
9986;SDS011;5033;46.310;11.214;2022-11-11T05:00:09;2.50;;;2.40;;
9986;SDS011;5033;46.310;11.214;2022-11-11T05:02:38;2.78;;;2.55;;
9986;SDS011;5033;46.310;11.214;2022-11-11T05:05:30;2.60;;;2.50;;
9986;SDS011;5033;46.310;11.214;2022-11-11T05:08:19;2.47;;;2.38;;
9986;SDS011;5033;46.310;11.214;2022-11-11T05:11:04;2.50;;;2.40;;
9986;SDS011;5033;46.310;11.214;2022-11-11T05:13:31;2.17;;;2.08;;
9986;SDS011;5033;46.310;11.214;2022-11-11T05:16:17;2.50;;;2.40;;
9986;SDS011;5033;46.310;11.214;2022-11-11T05:19:05;2.75;;;2.60;;
9986;SDS011;5033;46.310;11.214;2022-11-11T05:21:54;2.35;;;2.25;;
9986;SDS011;5033;46.310;11.214;2022-11-11T05:24:23;2.55;;;2.45;;
9986;SDS011;5033;46.310;11.214;2022-11-11T05:27:08;2.65;;;2.55;;
9986;SDS011;5033;46.310;11.214;2022-11-11T05:29:35;2.50;;;2.40;;
9986;SDS011;5033;46.310;11.214;2022-11-11T05:32:02;2.95;;;2.78;;
9986;SDS011;5033;46.310;11.214;2022-11-11T05:34:30;2.95;;;2.70;;
9986;SDS011;5033;46.310;11.214;2022-11-11T05:36:59;2.63;;;2.53;;
9986;SDS011;5033;46.310;11.214;2022-11-11T05:39:26;2.97;;;2.78;;
9986;SDS011;5033;46.310;11.214;2022-11-11T05:41:55;2.85;;;2.70;;
9986;SDS011;5033;46.310;11.214;2022-11-11T05:44:22;2.80;;;2.70;;
9986;SDS011;5033;46.310;11.214;2022-11-11T05:46:49;2.72;;;2.60;;
9986;SDS011;5033;46.310;11.214;2022-11-11T05:49:17;2.60;;;2.50;;
9986;SDS011;5033;46.310;11.214;2022-11-11T05:51:44;2.90;;;2.70;;
9986;SDS011;5033;46.310;11.214;2022-11-11T05:54:13;2.60;;;2.50;;
9986;SDS011;5033;46.310;11.214;2022-11-11T05:56:40;2.80;;;2.70;;
9986;SDS011;5033;46.310;11.214;2022-11-11T05:59:08;3.00;;;2.80;;
9986;SDS011;5033;46.310;11.214;2022-11-11T06:01:35;2.72;;;2.55;;
9986;SDS011;5033;46.310;11.214;2022-11-11T06:04:03;2.95;;;2.75;;
9986;SDS011;5033;46.310;11.214;2022-11-11T06:06:32;2.67;;;2.47;;
9986;SDS011;5033;46.310;11.214;2022-11-11T06:09:00;2.45;;;2.35;;
9986;SDS011;5033;46.310;11.214;2022-11-11T06:11:30;2.53;;;2.42;;
9986;SDS011;5033;46.310;11.214;2022-11-11T06:13:57;2.88;;;2.75;;
9986;SDS011;5033;46.310;11.214;2022-11-11T06:16:24;2.80;;;2.60;;
9986;SDS011;5033;46.310;11.214;2022-11-11T06:18:51;2.45;;;2.35;;
9986;SDS011;5033;46.310;11.214;2022-11-11T06:21:19;2.40;;;2.30;;
9986;SDS011;5033;46.310;11.214;2022-11-11T06:23:46;3.20;;;3.00;;
9986;SDS011;5033;46.310;11.214;2022-11-11T06:26:15;3.28;;;3.08;;
9986;SDS011;5033;46.310;11.214;2022-11-11T06:28:43;3.25;;;3.05;;
9986;SDS011;5033;46.310;11.214;2022-11-11T06:31:13;3.05;;;2.85;;
9986;SDS011;5033;46.310;11.214;2022-11-11T06:33:42;2.78;;;2.67;;
9986;SDS011;5033;46.310;11.214;2022-11-11T06:36:10;3.08;;;2.95;;
9986;SDS011;5033;46.310;11.214;2022-11-11T06:38:39;2.88;;;2.78;;
9986;SDS011;5033;46.310;11.214;2022-11-11T06:41:06;2.88;;;2.67;;
9986;SDS011;5033;46.310;11.214;2022-11-11T06:43:36;3.13;;;2.92;;
9986;SDS011;5033;46.310;11.214;2022-11-11T06:46:05;3.28;;;3.08;;
9986;SDS011;5033;46.310;11.214;2022-11-11T06:48:33;3.30;;;3.10;;
9986;SDS011;5033;46.310;11.214;2022-11-11T06:51:02;2.75;;;2.55;;
9986;SDS011;5033;46.310;11.214;2022-11-11T06:53:30;2.80;;;2.70;;
9986;SDS011;5033;46.310;11.214;2022-11-11T06:55:58;2.53;;;2.42;;
9986;SDS011;5033;46.310;11.214;2022-11-11T06:58:25;3.00;;;2.80;;
9986;SDS011;5033;46.310;11.214;2022-11-11T07:00:53;3.30;;;3.03;;
9986;SDS011;5033;46.310;11.214;2022-11-11T07:03:21;2.92;;;2.75;;
9986;SDS011;5033;46.310;11.214;2022-11-11T07:05:49;2.90;;;2.80;;
9986;SDS011;5033;46.310;11.214;2022-11-11T07:08:19;2.60;;;2.50;;
9986;SDS011;5033;46.310;11.214;2022-11-11T07:10:47;2.60;;;2.50;;
9986;SDS011;5033;46.310;11.214;2022-11-11T07:13:14;2.80;;;2.70;;
9986;SDS011;5033;46.310;11.214;2022-11-11T07:15:42;3.03;;;2.83;;
9986;SDS011;5033;46.310;11.214;2022-11-11T07:18:10;2.70;;;2.50;;
9986;SDS011;5033;46.310;11.214;2022-11-11T07:20:39;2.75;;;2.55;;
9986;SDS011;5033;46.310;11.214;2022-11-11T07:23:06;2.92;;;2.72;;
9986;SDS011;5033;46.310;11.214;2022-11-11T07:25:34;3.25;;;3.05;;
9986;SDS011;5033;46.310;11.214;2022-11-11T07:28:01;2.90;;;2.80;;
9986;SDS011;5033;46.310;11.214;2022-11-11T07:30:29;2.80;;;2.60;;
9986;SDS011;5033;46.310;11.214;2022-11-11T07:32:56;3.30;;;3.10;;
9986;SDS011;5033;46.310;11.214;2022-11-11T07:35:24;2.60;;;2.47;;
9986;SDS011;5033;46.310;11.214;2022-11-11T07:37:53;3.30;;;3.00;;
9986;SDS011;5033;46.310;11.214;2022-11-11T07:40:20;3.38;;;3.08;;
9986;SDS011;5033;46.310;11.214;2022-11-11T07:42:48;3.20;;;2.90;;
9986;SDS011;5033;46.310;11.214;2022-11-11T07:45:15;3.97;;;3.10;;
9986;SDS011;5033;46.310;11.214;2022-11-11T07:47:43;3.85;;;3.20;;
9986;SDS011;5033;46.310;11.214;2022-11-11T07:50:11;3.47;;;3.17;;
9986;SDS011;5033;46.310;11.214;2022-11-11T07:52:39;3.67;;;3.20;;
9986;SDS011;5033;46.310;11.214;2022-11-11T07:55:08;4.22;;;3.17;;
9986;SDS011;5033;46.310;11.214;2022-11-11T07:57:35;2.88;;;2.67;;
9986;SDS011;5033;46.310;11.214;2022-11-11T08:00:03;3.55;;;3.05;;
9986;SDS011;5033;46.310;11.214;2022-11-11T08:02:32;3.20;;;2.88;;
9986;SDS011;5033;46.310;11.214;2022-11-11T08:04:59;4.70;;;3.20;;
9986;SDS011;5033;46.310;11.214;2022-11-11T08:07:27;3.53;;;3.22;;
9986;SDS011;5033;46.310;11.214;2022-11-11T08:09:54;3.53;;;3.22;;
9986;SDS011;5033;46.310;11.214;2022-11-11T08:12:23;3.10;;;2.88;;
9986;SDS011;5033;46.310;11.214;2022-11-11T08:15:07;2.95;;;2.75;;
9986;SDS011;5033;46.310;11.214;2022-11-11T08:17:35;2.67;;;2.47;;
9986;SDS011;5033;46.310;11.214;2022-11-11T08:20:04;3.53;;;3.22;;
9986;SDS011;5033;46.310;11.214;2022-11-11T08:22:34;2.90;;;2.70;;
9986;SDS011;5033;46.310;11.214;2022-11-11T08:25:02;2.90;;;2.70;;
9986;SDS011;5033;46.310;11.214;2022-11-11T08:27:33;3.50;;;3.20;;
9986;SDS011;5033;46.310;11.214;2022-11-11T08:30:02;3.05;;;2.85;;
9986;SDS011;5033;46.310;11.214;2022-11-11T08:32:30;2.90;;;2.70;;
9986;SDS011;5033;46.310;11.214;2022-11-11T08:34:58;3.38;;;2.55;;
9986;SDS011;5033;46.310;11.214;2022-11-11T08:37:25;2.90;;;2.70;;
9986;SDS011;5033;46.310;11.214;2022-11-11T08:39:53;2.35;;;2.20;;
9986;SDS011;5033;46.310;11.214;2022-11-11T08:42:21;3.03;;;2.83;;
9986;SDS011;5033;46.310;11.214;2022-11-11T08:44:50;3.17;;;2.40;;
9986;SDS011;5033;46.310;11.214;2022-11-11T08:47:17;2.75;;;2.55;;
9986;SDS011;5033;46.310;11.214;2022-11-11T08:49:46;2.67;;;2.47;;
9986;SDS011;5033;46.310;11.214;2022-11-11T08:52:15;2.78;;;2.58;;
9986;SDS011;5033;46.310;11.214;2022-11-11T08:54:43;2.50;;;2.25;;
9986;SDS011;5033;46.310;11.214;2022-11-11T08:57:12;2.97;;;2.78;;
9986;SDS011;5033;46.310;11.214;2022-11-11T08:59:40;2.40;;;2.20;;
9986;SDS011;5033;46.310;11.214;2022-11-11T09:02:10;2.75;;;2.55;;
9986;SDS011;5033;46.310;11.214;2022-11-11T09:04:38;2.80;;;2.60;;
9986;SDS011;5033;46.310;11.214;2022-11-11T09:07:06;2.30;;;2.10;;
9986;SDS011;5033;46.310;11.214;2022-11-11T09:09:34;3.00;;;2.80;;
9986;SDS011;5033;46.310;11.214;2022-11-11T09:12:01;2.65;;;2.45;;
9986;SDS011;5033;46.310;11.214;2022-11-11T09:14:29;2.60;;;2.40;;
9986;SDS011;5033;46.310;11.214;2022-11-11T09:16:57;2.55;;;2.35;;
9986;SDS011;5033;46.310;11.214;2022-11-11T09:19:26;2.50;;;2.28;;
9986;SDS011;5033;46.310;11.214;2022-11-11T09:21:53;2.35;;;2.03;;
9986;SDS011;5033;46.310;11.214;2022-11-11T09:24:21;3.28;;;2.50;;
9986;SDS011;5033;46.310;11.214;2022-11-11T09:26:48;2.53;;;2.33;;
9986;SDS011;5033;46.310;11.214;2022-11-11T09:29:16;2.58;;;2.38;;
9986;SDS011;5033;46.310;11.214;2022-11-11T09:31:44;2.47;;;2.28;;
9986;SDS011;5033;46.310;11.214;2022-11-11T09:34:11;2.53;;;2.33;;
9986;SDS011;5033;46.310;11.214;2022-11-11T09:36:40;2.33;;;2.13;;
9986;SDS011;5033;46.310;11.214;2022-11-11T09:39:08;2.67;;;2.40;;
9986;SDS011;5033;46.310;11.214;2022-11-11T09:41:37;3.22;;;2.25;;
9986;SDS011;5033;46.310;11.214;2022-11-11T09:44:18;2.90;;;2.70;;
9986;SDS011;5033;46.310;11.214;2022-11-11T09:46:56;2.58;;;2.38;;
9986;SDS011;5033;46.310;11.214;2022-11-11T09:49:33;2.47;;;2.22;;
9986;SDS011;5033;46.310;11.214;2022-11-11T09:52:11;2.55;;;2.35;;
9986;SDS011;5033;46.310;11.214;2022-11-11T09:54:43;4.30;;;2.55;;
9986;SDS011;5033;46.310;11.214;2022-11-11T09:57:16;2.30;;;2.10;;
9986;SDS011;5033;46.310;11.214;2022-11-11T09:59:49;2.58;;;2.38;;
9986;SDS011;5033;46.310;11.214;2022-11-11T10:02:24;2.50;;;2.30;;
9986;SDS011;5033;46.310;11.214;2022-11-11T10:04:56;3.55;;;2.45;;
9986;SDS011;5033;46.310;11.214;2022-11-11T10:07:33;2.60;;;2.40;;
9986;SDS011;5033;46.310;11.214;2022-11-11T10:10:05;6.85;;;2.72;;
9986;SDS011;5033;46.310;11.214;2022-11-11T10:12:48;4.03;;;2.50;;
9986;SDS011;5033;46.310;11.214;2022-11-11T10:15:19;2.83;;;2.63;;
9986;SDS011;5033;46.310;11.214;2022-11-11T10:17:50;4.18;;;2.90;;
9986;SDS011;5033;46.310;11.214;2022-11-11T10:20:27;5.90;;;2.92;;
9986;SDS011;5033;46.310;11.214;2022-11-11T10:22:59;2.75;;;2.50;;
9986;SDS011;5033;46.310;11.214;2022-11-11T10:25:29;2.60;;;2.33;;
9986;SDS011;5033;46.310;11.214;2022-11-11T10:27:58;3.28;;;2.53;;
9986;SDS011;5033;46.310;11.214;2022-11-11T10:30:28;2.50;;;2.30;;
9986;SDS011;5033;46.310;11.214;2022-11-11T10:32:58;2.47;;;2.28;;
9986;SDS011;5033;46.310;11.214;2022-11-11T10:35:27;3.30;;;2.15;;
9986;SDS011;5033;46.310;11.214;2022-11-11T10:38:00;2.33;;;2.15;;
9986;SDS011;5033;46.310;11.214;2022-11-11T10:40:39;2.72;;;2.05;;
9986;SDS011;5033;46.310;11.214;2022-11-11T10:43:16;3.05;;;2.00;;
9986;SDS011;5033;46.310;11.214;2022-11-11T10:45:50;2.30;;;2.10;;
9986;SDS011;5033;46.310;11.214;2022-11-11T10:48:27;2.13;;;1.92;;
9986;SDS011;5033;46.310;11.214;2022-11-11T10:50:59;2.45;;;2.10;;
9986;SDS011;5033;46.310;11.214;2022-11-11T10:53:32;3.45;;;1.90;;
9986;SDS011;5033;46.310;11.214;2022-11-11T10:56:05;2.35;;;2.10;;
9986;SDS011;5033;46.310;11.214;2022-11-11T10:58:40;3.15;;;2.30;;
9986;SDS011;5033;46.310;11.214;2022-11-11T11:01:13;5.10;;;2.45;;
9986;SDS011;5033;46.310;11.214;2022-11-11T11:03:46;6.00;;;2.60;;
9986;SDS011;5033;46.310;11.214;2022-11-11T11:06:21;2.60;;;2.40;;
9986;SDS011;5033;46.310;11.214;2022-11-11T11:08:54;2.58;;;2.38;;
9986;SDS011;5033;46.310;11.214;2022-11-11T11:11:29;2.40;;;2.20;;
9986;SDS011;5033;46.310;11.214;2022-11-11T11:14:02;4.53;;;2.38;;
9986;SDS011;5033;46.310;11.214;2022-11-11T11:16:37;2.50;;;2.30;;
9986;SDS011;5033;46.310;11.214;2022-11-11T11:19:13;2.47;;;2.28;;
9986;SDS011;5033;46.310;11.214;2022-11-11T11:21:48;5.40;;;2.60;;
9986;SDS011;5033;46.310;11.214;2022-11-11T11:24:22;3.10;;;2.83;;
9986;SDS011;5033;46.310;11.214;2022-11-11T11:26:52;3.28;;;2.80;;
9986;SDS011;5033;46.310;11.214;2022-11-11T11:29:24;2.83;;;2.58;;
9986;SDS011;5033;46.310;11.214;2022-11-11T11:31:53;2.83;;;2.20;;
9986;SDS011;5033;46.310;11.214;2022-11-11T11:34:21;2.42;;;2.22;;
9986;SDS011;5033;46.310;11.214;2022-11-11T11:37:08;3.05;;;2.30;;
9986;SDS011;5033;46.310;11.214;2022-11-11T11:39:37;2.55;;;2.35;;
9986;SDS011;5033;46.310;11.214;2022-11-11T11:42:05;2.47;;;2.28;;
9986;SDS011;5033;46.310;11.214;2022-11-11T11:44:33;3.38;;;2.00;;
9986;SDS011;5033;46.310;11.214;2022-11-11T11:47:05;2.55;;;2.35;;
9986;SDS011;5033;46.310;11.214;2022-11-11T11:49:46;3.85;;;2.00;;
9986;SDS011;5033;46.310;11.214;2022-11-11T11:52:30;3.00;;;2.30;;
9986;SDS011;5033;46.310;11.214;2022-11-11T11:55:06;2.53;;;2.08;;
9986;SDS011;5033;46.310;11.214;2022-11-11T11:57:46;2.35;;;2.15;;
9986;SDS011;5033;46.310;11.214;2022-11-11T12:00:22;2.15;;;1.95;;
9986;SDS011;5033;46.310;11.214;2022-11-11T12:02:59;3.58;;;2.17;;
9986;SDS011;5033;46.310;11.214;2022-11-11T12:05:51;3.15;;;2.17;;
9986;SDS011;5033;46.310;11.214;2022-11-11T12:08:32;2.53;;;2.33;;
9986;SDS011;5033;46.310;11.214;2022-11-11T12:11:12;2.42;;;2.22;;
9986;SDS011;5033;46.310;11.214;2022-11-11T12:13:48;2.33;;;2.17;;
9986;SDS011;5033;46.310;11.214;2022-11-11T12:16:30;2.33;;;2.13;;
9986;SDS011;5033;46.310;11.214;2022-11-11T12:19:06;2.53;;;2.00;;
9986;SDS011;5033;46.310;11.214;2022-11-11T12:21:52;2.30;;;2.20;;
9986;SDS011;5033;46.310;11.214;2022-11-11T12:24:29;2.00;;;1.90;;
9986;SDS011;5033;46.310;11.214;2022-11-11T12:27:06;2.10;;;2.00;;
9986;SDS011;5033;46.310;11.214;2022-11-11T12:29:44;5.05;;;2.00;;
9986;SDS011;5033;46.310;11.214;2022-11-11T12:32:33;1.85;;;1.75;;
9986;SDS011;5033;46.310;11.214;2022-11-11T12:35:16;2.75;;;2.55;;
9986;SDS011;5033;46.310;11.214;2022-11-11T12:37:54;2.30;;;2.10;;
9986;SDS011;5033;46.310;11.214;2022-11-11T12:40:34;2.53;;;2.30;;
9986;SDS011;5033;46.310;11.214;2022-11-11T12:43:13;2.90;;;2.70;;
9986;SDS011;5033;46.310;11.214;2022-11-11T12:45:47;3.35;;;2.17;;
9986;SDS011;5033;46.310;11.214;2022-11-11T12:48:23;2.05;;;1.90;;
9986;SDS011;5033;46.310;11.214;2022-11-11T12:51:04;2.60;;;2.40;;
9986;SDS011;5033;46.310;11.214;2022-11-11T12:53:41;2.45;;;2.30;;
9986;SDS011;5033;46.310;11.214;2022-11-11T12:56:16;2.72;;;2.53;;
9986;SDS011;5033;46.310;11.214;2022-11-11T12:58:54;2.63;;;2.42;;
9986;SDS011;5033;46.310;11.214;2022-11-11T13:01:28;2.45;;;2.25;;
9986;SDS011;5033;46.310;11.214;2022-11-11T13:04:21;2.47;;;2.28;;
9986;SDS011;5033;46.310;11.214;2022-11-11T13:07:00;3.47;;;2.60;;
9986;SDS011;5033;46.310;11.214;2022-11-11T13:09:50;2.50;;;2.30;;
9986;SDS011;5033;46.310;11.214;2022-11-11T13:12:29;2.50;;;2.30;;
9986;SDS011;5033;46.310;11.214;2022-11-11T13:15:03;3.08;;;2.33;;
9986;SDS011;5033;46.310;11.214;2022-11-11T13:17:37;2.50;;;2.17;;
9986;SDS011;5033;46.310;11.214;2022-11-11T13:20:05;2.72;;;2.53;;
9986;SDS011;5033;46.310;11.214;2022-11-11T13:22:45;2.25;;;2.15;;
9986;SDS011;5033;46.310;11.214;2022-11-11T13:25:16;2.45;;;2.25;;
9986;SDS011;5033;46.310;11.214;2022-11-11T13:27:47;2.97;;;2.70;;
9986;SDS011;5033;46.310;11.214;2022-11-11T13:30:30;2.88;;;2.20;;
9986;SDS011;5033;46.310;11.214;2022-11-11T13:33:10;2.10;;;2.00;;
9986;SDS011;5033;46.310;11.214;2022-11-11T13:35:41;2.00;;;1.90;;
9986;SDS011;5033;46.310;11.214;2022-11-11T13:38:12;2.30;;;2.10;;
9986;SDS011;5033;46.310;11.214;2022-11-11T13:40:51;2.38;;;2.17;;
9986;SDS011;5033;46.310;11.214;2022-11-11T13:43:20;2.45;;;2.25;;
9986;SDS011;5033;46.310;11.214;2022-11-11T13:45:52;2.85;;;2.10;;
9986;SDS011;5033;46.310;11.214;2022-11-11T13:48:24;2.08;;;1.90;;
9986;SDS011;5033;46.310;11.214;2022-11-11T13:50:53;2.30;;;2.10;;
9986;SDS011;5033;46.310;11.214;2022-11-11T13:53:38;1.95;;;1.80;;
9986;SDS011;5033;46.310;11.214;2022-11-11T13:56:07;2.20;;;2.00;;
9986;SDS011;5033;46.310;11.214;2022-11-11T13:58:36;1.70;;;1.60;;
9986;SDS011;5033;46.310;11.214;2022-11-11T14:01:08;2.83;;;2.15;;
9986;SDS011;5033;46.310;11.214;2022-11-11T14:06:34;2.05;;;1.95;;
9986;SDS011;5033;46.310;11.214;2022-11-11T14:09:03;2.00;;;1.90;;
9986;SDS011;5033;46.310;11.214;2022-11-11T14:11:31;1.92;;;1.83;;
9986;SDS011;5033;46.310;11.214;2022-11-11T14:17:01;1.90;;;1.80;;
9986;SDS011;5033;46.310;11.214;2022-11-11T14:19:30;1.88;;;1.77;;
9986;SDS011;5033;46.310;11.214;2022-11-11T14:21:58;1.90;;;1.80;;
9986;SDS011;5033;46.310;11.214;2022-11-11T14:24:30;1.70;;;1.60;;
9986;SDS011;5033;46.310;11.214;2022-11-11T14:27:01;1.90;;;1.80;;
9986;SDS011;5033;46.310;11.214;2022-11-11T14:29:30;2.10;;;2.00;;
9986;SDS011;5033;46.310;11.214;2022-11-11T14:32:13;2.35;;;2.15;;
9986;SDS011;5033;46.310;11.214;2022-11-11T14:35:01;2.22;;;2.00;;
9986;SDS011;5033;46.310;11.214;2022-11-11T14:37:44;2.65;;;2.45;;
9986;SDS011;5033;46.310;11.214;2022-11-11T14:40:23;1.92;;;1.83;;
9986;SDS011;5033;46.310;11.214;2022-11-11T14:42:52;2.33;;;2.22;;
9986;SDS011;5033;46.310;11.214;2022-11-11T14:54:25;3.20;;;2.95;;
9986;SDS011;5033;46.310;11.214;2022-11-11T14:57:02;3.30;;;3.10;;
9986;SDS011;5033;46.310;11.214;2022-11-11T14:59:36;3.30;;;3.10;;
9986;SDS011;5033;46.310;11.214;2022-11-11T15:02:06;4.03;;;3.72;;
9986;SDS011;5033;46.310;11.214;2022-11-11T15:04:48;3.00;;;2.80;;
9986;SDS011;5033;46.310;11.214;2022-11-11T15:07:26;3.88;;;3.50;;
9986;SDS011;5033;46.310;11.214;2022-11-11T15:10:22;3.00;;;2.80;;
9986;SDS011;5033;46.310;11.214;2022-11-11T15:16:10;3.78;;;3.45;;
9986;SDS011;5033;46.310;11.214;2022-11-11T15:18:57;4.22;;;3.83;;
9986;SDS011;5033;46.310;11.214;2022-11-11T15:21:35;4.50;;;4.10;;
9986;SDS011;5033;46.310;11.214;2022-11-11T15:24:10;4.65;;;4.25;;
9986;SDS011;5033;46.310;11.214;2022-11-11T15:26:49;3.85;;;3.50;;
9986;SDS011;5033;46.310;11.214;2022-11-11T15:29:33;4.05;;;3.75;;
9986;SDS011;5033;46.310;11.214;2022-11-11T15:32:15;4.60;;;4.20;;
9986;SDS011;5033;46.310;11.214;2022-11-11T15:34:50;5.60;;;5.13;;
9986;SDS011;5033;46.310;11.214;2022-11-11T15:37:26;5.85;;;5.35;;
9986;SDS011;5033;46.310;11.214;2022-11-11T15:39:55;8.50;;;7.80;;
9986;SDS011;5033;46.310;11.214;2022-11-11T15:42:25;10.85;;;9.73;;
9986;SDS011;5033;46.310;11.214;2022-11-11T15:44:57;11.38;;;10.32;;
9986;SDS011;5033;46.310;11.214;2022-11-11T15:47:26;8.07;;;7.28;;
9986;SDS011;5033;46.310;11.214;2022-11-11T15:49:54;6.00;;;5.50;;